Aérodrome :
LOGIN :

S'inscrire | Disclaimer

   EN    FR    IT 

 










Légende :    VFR   VFR Marginal   IFR   IFR Intensif   IFR Très Intensif
Visi : 
Plafond : 
>= 8 km
>= 3000ft
5 à 8 km
1000 à 3000 ft
1500m à 5 km
500 à 1000 ft
800 à 1500m
200 à 500 ft
< 800m
< 200 ft
Symboles :   Orages  Brouillard  Fortes neiges  Fortes précipitations  Vent > 20 kt
SIGMETs :   Divers  Orages  Givrage  Turbulence  Onde Orograph.  Cendres Volcan.







- Altitude de l'aérodrome : 529 ft
- Code IATA : CHR
- Voir les cartes d'approche


LFLX - Chateauroux

DERNIER METAR :
  • 181700Z AUTO 03008KT CAVOK 20/09 Q1017 NOSIG

METARs EXPIRÉS :
  • 181630Z AUTO 04008KT CAVOK 21/09 Q1017 NOSIG
  • 181600Z AUTO 04009KT CAVOK 22/09 Q1017 NOSIG
  • 181530Z AUTO 04011KT CAVOK 23/09 Q1017 NOSIG
  • 181500Z AUTO 04011KT CAVOK 23/09 Q1017 NOSIG
  • 181430Z AUTO 04012KT 010V070 CAVOK 23/09 Q1017 NOSIG

TAF TAF LFLX
Valide du 18 à 18h jusqu'au 20 à 00h UTC


181700Z 1818/1924 04010KT CAVOK
TEMPO 1904/1910 3500 BR BKN004
PROB30
TEMPO 1905/1909 0800 FG VV///
Pas de NOTAMs connus pour ce terrain.



MET'MAP, la Météo Aéronautique d'un coup d'oeil ! - Copyright ORBIFLY Décembre 2007 - Disclaimer

ORBIFLY MET'MAP TEAM :

Programmation & Développement : Alexandra Zaïnal
Conception & Développement : Baudouin d'Aumeries
Co-Programmation & Développement : Marc-Olivier Méhu
Soutien technique & logistique : Manuel Goepfert

Contact : metmap@orbifly.com




SOURCES & CREDITS :

   NOAA